Terminal Aerodrome Forecast
Issued by NWS New Orleans/Baton Rouge, LA

Home | Current Version | Previous Version | Text Only | Print | Product List | Glossary On
Versions: 1 2 3 4 5 6 7 8 9 10 11 12 13 14 15 16 17 18
000
FTUS44 KLIX 292331
TAFBTR
TAF
KBTR 292331Z 3000/3024 11006KT P6SM FEW090
     FM300300 VRB03KT P6SM BKN250
     FM301500 VRB03KT P6SM BKN030
     FM301800 22004KT P6SM VCTS BKN035CB=

USA.gov is the U.S. government's official web portal to all federal, state and local government web resources and services.